Time;durP1;ratioP1;P1;durP2;ratioP2;P2;SDS_P1;SDS_P2;PMS_P1;PMS_P2;Temp;Humidity;BMP_temperature;BMP_pressure;BME280_temperature;BME280_humidity;BME280_pressure;Samples;Min_cycle;Max_cycle;Signal;HPM_P1;HPM_P2
2021/08/05 00:00:44;;;;;;;5.95;5.32;;;23.20;64.50;;;;;;4994294;28;20025;-73
2021/08/05 00:03:10;;;;;;;7.82;5.93;;;23.20;64.20;;;;;;4994498;28;20018;-75
2021/08/05 00:05:36;;;;;;;7.18;5.88;;;23.20;64.20;;;;;;4995205;28;20432;-75
2021/08/05 00:08:02;;;;;;;7.28;6.38;;;23.20;64.00;;;;;;4995299;28;20030;-76
2021/08/05 00:10:28;;;;;;;8.25;6.18;;;23.20;63.80;;;;;;4994986;28;20031;-75
2021/08/05 00:12:54;;;;;;;6.78;5.53;;;23.20;63.70;;;;;;4995323;28;20030;-75
2021/08/05 00:15:20;;;;;;;7.13;6.00;;;23.20;63.20;;;;;;4995004;28;20092;-74
2021/08/05 00:17:45;;;;;;;7.60;5.60;;;23.30;63.00;;;;;;4977498;28;20037;-74
2021/08/05 00:20:11;;;;;;;13.10;6.30;;;23.30;62.80;;;;;;4994812;28;20022;-74
2021/08/05 00:22:37;;;;;;;6.15;5.50;;;23.30;62.80;;;;;;4994913;28;20084;-75
2021/08/05 00:25:03;;;;;;;6.22;5.63;;;23.30;62.80;;;;;;4994841;28;20097;-74
2021/08/05 00:27:29;;;;;;;8.30;6.18;;;23.30;62.70;;;;;;4994875;28;20042;-74
2021/08/05 00:29:55;;;;;;;7.45;5.80;;;23.30;62.70;;;;;;4995470;28;20030;-75
2021/08/05 00:32:20;;;;;;;10.52;6.03;;;23.30;62.70;;;;;;4994997;28;20059;-75
2021/08/05 00:34:46;;;;;;;8.20;5.50;;;23.20;62.70;;;;;;4995216;28;20027;-74
2021/08/05 00:37:12;;;;;;;7.05;5.45;;;23.20;62.60;;;;;;4994658;28;20105;-75
2021/08/05 00:39:37;;;;;;;6.72;5.47;;;23.20;62.50;;;;;;4994331;28;20488;-74
2021/08/05 00:42:04;;;;;;;6.15;5.53;;;23.20;62.50;;;;;;4994318;28;20030;-75
2021/08/05 00:44:30;;;;;;;6.90;5.80;;;23.20;62.50;;;;;;4994142;28;20019;-75
2021/08/05 00:46:56;;;;;;;21.52;5.60;;;23.20;62.50;;;;;;4993983;28;20041;-75
2021/08/05 00:49:22;;;;;;;5.95;5.15;;;23.20;62.60;;;;;;4975558;28;20101;-74
2021/08/05 00:51:47;;;;;;;6.10;5.50;;;23.10;62.60;;;;;;4993756;28;20026;-74
2021/08/05 00:54:13;;;;;;;5.93;5.13;;;23.20;62.50;;;;;;4993453;28;20018;-75
2021/08/05 00:56:39;;;;;;;6.00;5.18;;;23.10;62.20;;;;;;4993847;28;20038;-75
2021/08/05 00:59:05;;;;;;;7.40;5.13;;;23.10;61.90;;;;;;4994022;28;20033;-75
2021/08/05 01:01:40;;;;;;;6.47;5.30;;;23.10;61.80;;;;;;4994037;28;20362;-75
2021/08/05 01:04:08;;;;;;;6.20;5.40;;;23.10;61.80;;;;;;4993779;28;20026;-75
2021/08/05 01:06:39;;;;;;;11.40;5.57;;;23.10;61.80;;;;;;4993766;28;20053;-76
2021/08/05 01:09:32;;;;;;;7.90;5.03;;;23.10;61.90;;;;;;4993357;28;20055;-76
2021/08/05 01:12:11;;;;;;;7.10;5.80;;;23.00;62.00;;;;;;4993582;28;20312;-75
2021/08/05 01:14:39;;;;;;;7.03;5.35;;;23.00;62.30;;;;;;4993512;28;20105;-75
2021/08/05 01:17:08;;;;;;;6.80;5.75;;;23.00;62.40;;;;;;4993429;28;20026;-74
2021/08/05 01:19:56;;;;;;;6.43;5.72;;;22.90;62.60;;;;;;4993461;28;20023;-75
2021/08/05 01:22:29;;;;;;;8.25;6.60;;;22.90;63.10;;;;;;4993419;28;20046;-74
2021/08/05 01:25:15;;;;;;;10.15;8.02;;;22.80;63.60;;;;;;4993448;28;20026;-74
2021/08/05 01:27:41;;;;;;;9.40;7.28;;;22.80;64.00;;;;;;4993321;28;20053;-74
2021/08/05 01:30:08;;;;;;;8.98;7.20;;;22.80;64.30;;;;;;4993409;28;20453;-74
2021/08/05 01:32:35;;;;;;;10.60;8.15;;;22.70;64.70;;;;;;4992995;28;20054;-72
2021/08/05 01:35:02;;;;;;;7.85;6.75;;;22.70;65.20;;;;;;4992776;28;20381;-72
2021/08/05 01:37:28;;;;;;;9.32;7.78;;;22.60;65.40;;;;;;4992552;28;20027;-72
2021/08/05 01:39:55;;;;;;;15.10;7.65;;;22.60;65.70;;;;;;4975345;28;20022;-72
2021/08/05 01:42:21;;;;;;;8.00;6.80;;;22.60;65.90;;;;;;4992549;28;20474;-72
2021/08/05 01:44:51;;;;;;;9.40;7.18;;;22.60;66.10;;;;;;4992664;28;20030;-72
2021/08/05 01:47:19;;;;;;;8.82;6.93;;;22.50;66.40;;;;;;4992896;28;20053;-72
2021/08/05 01:49:45;;;;;;;8.35;7.45;;;22.50;66.80;;;;;;4992518;28;20050;-73
2021/08/05 01:52:12;;;;;;;7.95;7.13;;;22.40;67.10;;;;;;4992485;28;20030;-72
2021/08/05 01:54:39;;;;;;;11.23;7.32;;;22.30;67.40;;;;;;4992531;28;20030;-73
2021/08/05 01:57:05;;;;;;;13.00;7.28;;;22.30;67.80;;;;;;4992271;28;20034;-73
2021/08/05 01:59:31;;;;;;;11.88;7.43;;;22.30;68.20;;;;;;4992524;28;20084;-73
2021/08/05 02:01:57;;;;;;;10.48;7.93;;;22.30;68.50;;;;;;4995110;28;20027;-73
2021/08/05 02:04:47;;;;;;;12.10;8.63;;;22.20;68.90;;;;;;4996422;28;20504;-71
2021/08/05 02:07:24;;;;;;;10.60;8.05;;;22.20;69.60;;;;;;4996493;28;20026;-73
2021/08/05 02:10:15;;;;;;;9.10;8.20;;;22.20;70.20;;;;;;4996504;28;20057;-73
2021/08/05 02:12:46;;;;;;;9.75;8.65;;;22.20;70.70;;;;;;4982417;28;20088;-73
2021/08/05 02:15:12;;;;;;;11.82;8.50;;;22.20;71.20;;;;;;4996260;28;20026;-73
2021/08/05 02:17:41;;;;;;;12.80;8.90;;;22.20;71.40;;;;;;4995923;28;20105;-73
2021/08/05 02:20:09;;;;;;;10.20;8.98;;;22.20;71.90;;;;;;4996219;28;20422;-74
2021/08/05 02:22:38;;;;;;;10.27;8.50;;;22.20;72.20;;;;;;4997211;28;20048;-75
2021/08/05 02:25:04;;;;;;;12.43;9.05;;;22.30;72.60;;;;;;4996726;28;20044;-75
2021/08/05 02:27:30;;;;;;;13.90;8.88;;;22.30;72.70;;;;;;4996774;28;20089;-75
2021/08/05 02:29:58;;;;;;;16.08;8.23;;;22.30;72.70;;;;;;4979549;28;20474;-74
2021/08/05 02:32:23;;;;;;;10.82;9.00;;;22.30;72.90;;;;;;4996748;28;20072;-74
2021/08/05 02:34:50;;;;;;;10.20;9.23;;;22.30;73.00;;;;;;4996753;28;20026;-74
2021/08/05 02:37:16;;;;;;;16.65;9.52;;;22.30;73.10;;;;;;4979324;28;20022;-75
2021/08/05 02:39:42;;;;;;;13.32;9.20;;;22.40;73.30;;;;;;4996609;28;20076;-75
2021/08/05 02:42:09;;;;;;;10.52;8.90;;;22.40;73.40;;;;;;4996404;28;20030;-75
2021/08/05 02:44:36;;;;;;;13.55;8.88;;;22.40;73.50;;;;;;4996298;28;20021;-75
2021/08/05 02:47:02;;;;;;;9.80;8.57;;;22.50;73.40;;;;;;4996289;28;20497;-75
2021/08/05 02:49:30;;;;;;;12.02;8.52;;;22.50;73.30;;;;;;4996544;28;20027;-74
2021/08/05 02:51:57;;;;;;;14.13;9.07;;;22.50;73.20;;;;;;4996441;28;20084;-75
2021/08/05 02:54:23;;;;;;;15.30;9.45;;;22.50;73.20;;;;;;4996400;28;20026;-74
2021/08/05 02:56:49;;;;;;;14.40;9.63;;;22.80;73.10;;;;;;4978695;28;20094;-75
2021/08/05 02:59:16;;;;;;;12.20;8.43;;;23.20;72.40;;;;;;4995866;28;20049;-75
2021/08/05 03:01:42;;;;;;;10.20;8.50;;;23.50;71.20;;;;;;4996003;28;20050;-75
2021/08/05 03:04:09;;;;;;;9.40;8.35;;;23.60;70.20;;;;;;4996075;28;20464;-75
2021/08/05 03:06:36;;;;;;;10.55;8.65;;;23.70;69.40;;;;;;4996117;28;20065;-75
2021/08/05 03:09:02;;;;;;;22.83;16.90;;;23.70;68.80;;;;;;4996128;28;20028;-75
2021/08/05 03:11:28;;;;;;;15.25;12.35;;;23.70;68.30;;;;;;4996157;28;20400;-75
2021/08/05 03:13:54;;;;;;;13.25;10.05;;;23.70;67.90;;;;;;4995367;28;20022;-74
2021/08/05 03:16:20;;;;;;;13.07;9.90;;;23.70;67.60;;;;;;4995623;28;20062;-75
2021/08/05 03:18:45;;;;;;;14.52;10.35;;;23.60;67.40;;;;;;4995517;28;20018;-75
2021/08/05 03:21:11;;;;;;;12.43;9.60;;;23.70;67.20;;;;;;4995553;28;20061;-76
2021/08/05 03:23:37;;;;;;;13.85;10.60;;;23.70;67.00;;;;;;4995469;28;20105;-76
2021/08/05 03:26:03;;;;;;;13.57;10.05;;;23.70;66.80;;;;;;4995664;28;20030;-75
2021/08/05 03:28:29;;;;;;;12.73;9.95;;;23.70;66.60;;;;;;4995660;28;20034;-76
2021/08/05 03:30:56;;;;;;;14.40;10.05;;;23.70;66.40;;;;;;4995338;28;20085;-75
2021/08/05 03:33:22;;;;;;;15.77;10.48;;;23.70;66.10;;;;;;4977860;28;20112;-75
2021/08/05 03:35:48;;;;;;;15.77;10.73;;;23.80;66.00;;;;;;4995415;28;20460;-75
2021/08/05 03:38:14;;;;;;;30.13;24.77;;;23.90;65.90;;;;;;4995733;28;20081;-76
2021/08/05 03:40:39;;;;;;;14.95;10.35;;;24.00;65.70;;;;;;4995207;28;20026;-76
2021/08/05 03:43:05;;;;;;;16.40;11.25;;;24.10;65.30;;;;;;4995012;28;20500;-73
2021/08/05 03:45:31;;;;;;;19.08;12.75;;;24.30;64.90;;;;;;4994484;28;20022;-73
2021/08/05 03:47:57;;;;;;;12.48;10.50;;;24.50;64.50;;;;;;4994654;28;20039;-73
2021/08/05 03:50:22;;;;;;;20.42;10.75;;;24.60;63.80;;;;;;4994464;28;20081;-73
2021/08/05 03:52:48;;;;;;;11.07;9.65;;;24.80;63.60;;;;;;4994414;28;20469;-73
2021/08/05 03:55:14;;;;;;;14.20;10.48;;;24.80;63.40;;;;;;4994395;28;20072;-73
2021/08/05 03:57:44;;;;;;;15.85;10.50;;;24.80;63.40;;;;;;4994105;28;20101;-73
2021/08/05 04:00:12;;;;;;;10.27;9.20;;;24.70;63.30;;;;;;4994124;28;20480;-73
2021/08/05 04:02:39;;;;;;;13.02;9.68;;;24.70;63.20;;;;;;4994036;28;20045;-73
2021/08/05 04:05:05;;;;;;;11.88;9.90;;;24.70;63.40;;;;;;4976690;28;20027;-73
2021/08/05 04:07:31;;;;;;;12.70;9.88;;;24.80;63.40;;;;;;4976730;28;20032;-73
2021/08/05 04:09:57;;;;;;;10.80;9.38;;;24.80;63.50;;;;;;4993888;28;20030;-73
2021/08/05 04:12:23;;;;;;;10.73;9.73;;;25.10;63.60;;;;;;4993780;28;20487;-73
2021/08/05 04:14:51;;;;;;;11.07;8.68;;;25.80;63.40;;;;;;4993711;28;20422;-73
2021/08/05 04:17:17;;;;;;;12.40;8.85;;;26.70;62.10;;;;;;4960530;28;20034;-73
2021/08/05 04:19:43;;;;;;;11.90;9.40;;;27.30;60.30;;;;;;4993715;28;20033;-73
2021/08/05 04:22:08;;;;;;;13.82;8.90;;;27.90;59.30;;;;;;4993556;28;20109;-73
2021/08/05 04:24:34;;;;;;;12.25;9.27;;;28.70;58.50;;;;;;4992555;28;20445;-73
2021/08/05 04:27:00;;;;;;;13.73;8.80;;;29.80;57.10;;;;;;4993585;28;20109;-73
2021/08/05 04:29:26;;;;;;;11.48;9.10;;;30.90;55.50;;;;;;4992896;28;20034;-73
2021/08/05 04:31:51;;;;;;;14.18;8.38;;;31.80;53.70;;;;;;4993451;28;20097;-74
2021/08/05 04:34:17;;;;;;;12.23;7.97;;;32.40;52.30;;;;;;4993802;28;20803;-75
2021/08/05 04:36:43;;;;;;;13.18;7.93;;;32.80;51.10;;;;;;4976127;28;20041;-74
2021/08/05 04:39:08;;;;;;;39.60;23.73;;;33.10;50.30;;;;;;4992871;28;20408;-74
2021/08/05 04:41:34;;;;;;;19.65;9.88;;;33.50;49.90;;;;;;4992246;28;20113;-74
2021/08/05 04:44:00;;;;;;;15.23;11.45;;;33.80;49.20;;;;;;4993456;28;20085;-75
2021/08/05 04:46:26;;;;;;;13.73;9.30;;;34.30;48.50;;;;;;4993868;28;20018;-76
2021/08/05 04:48:52;;;;;;;13.63;9.48;;;34.70;47.90;;;;;;4993396;28;20026;-74
2021/08/05 04:51:18;;;;;;;10.40;9.30;;;35.00;47.20;;;;;;4992888;28;20358;-75
2021/08/05 04:53:43;;;;;;;10.00;8.05;;;35.40;46.60;;;;;;4992980;28;20026;-74
2021/08/05 04:56:09;;;;;;;10.48;8.52;;;35.90;46.00;;;;;;4992848;28;20077;-75
2021/08/05 04:58:35;;;;;;;10.93;8.02;;;36.30;45.40;;;;;;4992878;28;20042;-74
2021/08/05 05:01:00;;;;;;;14.77;8.10;;;36.90;44.80;;;;;;4992714;28;20385;-75
2021/08/05 05:03:26;;;;;;;11.73;8.65;;;37.50;44.20;;;;;;4993207;28;20030;-75
2021/08/05 05:05:52;;;;;;;10.63;8.30;;;38.00;43.60;;;;;;4993385;28;20105;-75
2021/08/05 05:08:20;;;;;;;14.73;8.80;;;38.70;42.80;;;;;;4993068;28;20080;-76
2021/08/05 05:10:48;;;;;;;11.15;9.45;;;39.30;42.00;;;;;;4993315;28;20092;-76
2021/08/05 05:13:15;;;;;;;14.25;8.18;;;39.80;41.30;;;;;;4993247;28;20046;-76
2021/08/05 05:15:41;;;;;;;9.32;8.25;;;39.90;40.60;;;;;;4975142;28;20393;-76
2021/08/05 05:18:07;;;;;;;10.15;8.20;;;39.50;40.20;;;;;;4992649;28;20022;-75
2021/08/05 05:20:34;;;;;;;11.52;8.60;;;38.90;40.40;;;;;;4992880;28;20033;-76
2021/08/05 05:23:00;;;;;;;9.25;7.95;;;38.30;41.10;;;;;;4992972;28;20465;-74
2021/08/05 05:25:26;;;;;;;9.73;8.50;;;38.40;41.40;;;;;;4974528;28;20450;-73
2021/08/05 05:27:52;;;;;;;14.07;9.05;;;38.50;41.40;;;;;;4991992;28;20489;-76
2021/08/05 05:30:19;;;;;;;9.70;8.80;;;39.00;41.20;;;;;;4992096;28;20037;-75
2021/08/05 05:32:46;;;;;;;9.77;8.68;;;39.60;41.60;;;;;;4992242;28;20058;-73
2021/08/05 05:35:14;;;;;;;18.90;8.80;;;40.30;40.40;;;;;;4991833;28;20465;-72
2021/08/05 05:37:40;;;;;;;14.43;8.77;;;41.10;39.80;;;;;;4974594;28;20575;-73
2021/08/05 05:40:06;;;;;;;12.07;8.50;;;41.50;39.20;;;;;;4991222;28;20077;-73
2021/08/05 05:42:33;;;;;;;16.30;8.55;;;41.60;38.70;;;;;;4990508;28;20025;-73
2021/08/05 05:44:59;;;;;;;9.18;8.27;;;41.50;38.60;;;;;;4991577;28;20845;-73
2021/08/05 05:47:25;;;;;;;9.13;8.07;;;41.60;38.60;;;;;;4991661;28;20081;-73
2021/08/05 05:49:53;;;;;;;8.85;8.10;;;41.70;38.40;;;;;;4991753;28;20209;-73
2021/08/05 05:52:19;;;;;;;10.98;9.20;;;41.80;38.10;;;;;;4991918;28;20520;-74
2021/08/05 05:54:44;;;;;;;14.85;8.75;;;41.30;37.80;;;;;;4992001;28;20416;-73
2021/08/05 05:57:10;;;;;;;10.18;9.10;;;40.20;38.40;;;;;;4991667;28;20026;-72
2021/08/05 05:59:36;;;;;;;15.95;9.10;;;39.40;39.30;;;;;;4991831;28;20026;-72
2021/08/05 06:02:02;;;;;;;13.75;9.38;;;38.50;40.00;;;;;;4991437;28;20023;-73
2021/08/05 06:04:28;;;;;;;12.48;9.52;;;37.80;40.70;;;;;;4991772;28;20037;-73
2021/08/05 06:06:54;;;;;;;13.38;9.70;;;37.20;41.40;;;;;;4992148;28;20027;-73
2021/08/05 06:09:20;;;;;;;13.25;9.57;;;36.70;42.00;;;;;;4991659;28;20026;-73
2021/08/05 06:11:46;;;;;;;16.17;10.13;;;36.20;42.60;;;;;;4991932;28;20072;-73
2021/08/05 06:14:12;;;;;;;10.60;9.57;;;36.20;43.10;;;;;;4974365;28;20474;-74
2021/08/05 06:16:37;;;;;;;14.73;9.70;;;36.40;43.30;;;;;;4992658;28;20026;-77
2021/08/05 06:19:03;;;;;;;10.15;9.15;;;36.50;43.10;;;;;;4992599;28;20025;-78
2021/08/05 06:21:30;;;;;;;12.85;9.80;;;36.50;42.90;;;;;;4993072;28;20095;-79
2021/08/05 06:23:56;;;;;;;10.68;9.52;;;36.70;42.90;;;;;;4993067;28;20081;-76
2021/08/05 06:26:25;;;;;;;13.05;9.50;;;37.00;42.70;;;;;;4993248;28;20030;-76
2021/08/05 06:28:51;;;;;;;16.83;9.98;;;37.40;42.50;;;;;;4993212;28;20385;-77
2021/08/05 06:31:18;;;;;;;13.02;10.13;;;37.80;42.20;;;;;;4993050;28;20026;-76
2021/08/05 06:33:45;;;;;;;14.35;10.60;;;37.90;41.90;;;;;;4993193;28;20030;-76
2021/08/05 06:36:11;;;;;;;12.63;10.32;;;38.00;42.00;;;;;;4993189;28;20022;-77
2021/08/05 06:38:37;;;;;;;11.52;9.93;;;38.10;42.00;;;;;;4992983;28;20057;-75
2021/08/05 06:41:03;;;;;;;10.68;9.57;;;38.40;41.90;;;;;;4993219;28;20322;-76
2021/08/05 06:43:29;;;;;;;13.45;10.52;;;38.60;41.30;;;;;;4992559;28;20041;-76
2021/08/05 06:45:55;;;;;;;11.27;10.18;;;38.60;41.20;;;;;;4992557;28;20026;-75
2021/08/05 06:48:21;;;;;;;13.93;9.73;;;38.60;41.20;;;;;;4993776;28;20124;-75
2021/08/05 06:50:46;;;;;;;12.90;9.80;;;38.80;41.30;;;;;;4978007;28;20030;-74
2021/08/05 06:53:12;;;;;;;11.38;10.25;;;39.20;41.10;;;;;;4995994;28;20088;-76
2021/08/05 06:55:38;;;;;;;21.80;9.77;;;39.70;40.80;;;;;;4995513;28;20029;-72
2021/08/05 06:58:03;;;;;;;11.57;10.25;;;40.40;40.20;;;;;;4995023;28;20468;-77
2021/08/05 07:00:29;;;;;;;11.75;10.00;;;41.20;39.70;;;;;;4995259;28;20077;-77
2021/08/05 07:02:55;;;;;;;14.75;10.02;;;41.80;39.00;;;;;;4994948;28;20437;-73
2021/08/05 07:05:21;;;;;;;14.50;8.70;;;42.30;38.60;;;;;;4994747;28;20045;-73
2021/08/05 07:07:46;;;;;;;12.98;10.20;;;42.60;38.20;;;;;;4994684;28;20041;-73
2021/08/05 07:10:12;;;;;;;11.80;9.85;;;42.80;37.60;;;;;;4994523;28;20026;-74
2021/08/05 07:12:38;;;;;;;10.98;9.30;;;42.90;37.40;;;;;;4994984;28;20480;-73
2021/08/05 07:15:05;;;;;;;12.73;9.20;;;42.90;37.40;;;;;;4994646;28;20071;-72
2021/08/05 07:17:31;;;;;;;15.30;8.75;;;43.10;37.30;;;;;;4994470;28;20026;-73
2021/08/05 07:19:57;;;;;;;12.68;8.23;;;43.30;37.10;;;;;;4977176;28;20114;-72
2021/08/05 07:22:23;;;;;;;13.75;8.20;;;43.50;36.90;;;;;;4994376;28;20033;-73
2021/08/05 07:24:48;;;;;;;13.55;8.40;;;43.70;36.70;;;;;;4994634;28;20022;-73
2021/08/05 07:27:14;;;;;;;8.95;7.93;;;43.80;36.40;;;;;;4994659;28;20484;-72
2021/08/05 07:29:40;;;;;;;12.40;7.50;;;43.80;36.20;;;;;;4994518;28;20033;-73
2021/08/05 07:32:06;;;;;;;7.88;7.07;;;43.60;35.80;;;;;;4994390;28;20050;-74
2021/08/05 07:34:33;;;;;;;8.82;7.43;;;43.20;35.80;;;;;;4994685;28;20034;-75
2021/08/05 07:36:59;;;;;;;8.07;7.15;;;42.90;36.20;;;;;;5009751;28;20030;-78
2021/08/05 07:39:25;;;;;;;8.38;7.32;;;42.80;36.20;;;;;;4994103;28;20530;-77
2021/08/05 07:41:51;;;;;;;9.52;7.88;;;42.70;36.30;;;;;;4994195;28;20031;-84
2021/08/05 07:44:17;;;;;;;12.60;7.65;;;42.50;36.30;;;;;;4994837;28;20030;-79
2021/08/05 07:46:44;;;;;;;8.40;7.45;;;42.20;36.50;;;;;;4995086;28;20034;-86
2021/08/05 07:49:10;;;;;;;16.13;8.55;;;42.10;36.60;;;;;;4994636;28;20068;-81
2021/08/05 07:51:37;;;;;;;13.00;6.82;;;42.00;37.00;;;;;;4994229;28;20408;-80
2021/08/05 07:54:03;;;;;;;7.55;6.78;;;41.80;36.80;;;;;;4994377;28;20030;-80
2021/08/05 07:56:29;;;;;;;8.45;6.95;;;41.80;36.80;;;;;;4976510;28;20027;-80
2021/08/05 07:58:55;;;;;;;10.52;6.68;;;41.70;36.90;;;;;;4994136;28;20412;-82
2021/08/05 08:01:21;;;;;;;10.05;7.22;;;41.70;37.00;;;;;;4994185;28;20102;-82
2021/08/05 08:03:47;;;;;;;8.20;6.88;;;41.70;36.90;;;;;;4994181;28;20153;-82
2021/08/05 08:06:13;;;;;;;11.70;7.00;;;41.60;36.70;;;;;;4995486;28;20476;-83
2021/08/05 08:08:38;;;;;;;11.98;7.20;;;41.50;36.90;;;;;;4977260;28;20030;-84
2021/08/05 08:11:04;;;;;;;9.68;6.70;;;41.50;37.30;;;;;;4977070;28;20030;-82
2021/08/05 08:13:31;;;;;;;9.25;6.40;;;41.40;37.30;;;;;;4994078;28;20054;-83
2021/08/05 08:15:57;;;;;;;7.55;5.85;;;41.30;37.10;;;;;;4993355;28;20292;-82
2021/08/05 08:18:24;;;;;;;8.80;5.32;;;40.90;37.20;;;;;;4993508;28;20027;-81
2021/08/05 08:20:50;;;;;;;6.65;5.55;;;40.50;37.40;;;;;;4976133;28;20025;-81
2021/08/05 08:23:16;;;;;;;7.85;5.70;;;40.10;37.80;;;;;;4993759;28;20033;-84
2021/08/05 08:25:42;;;;;;;7.97;5.82;;;39.80;38.10;;;;;;4994196;28;20033;-83
2021/08/05 08:28:08;;;;;;;10.43;6.03;;;39.60;38.40;;;;;;4994028;28;20034;-80
2021/08/05 08:30:35;;;;;;;10.13;5.90;;;39.50;38.50;;;;;;4994103;28;20038;-79
2021/08/05 08:33:01;;;;;;;8.30;5.80;;;39.30;38.80;;;;;;4992785;28;20142;-80
2021/08/05 08:35:30;;;;;;;6.72;5.93;;;39.30;39.10;;;;;;4993262;28;20528;-77
2021/08/05 08:37:56;;;;;;;8.15;6.13;;;39.20;39.30;;;;;;4993574;28;20058;-80
2021/08/05 08:40:22;;;;;;;6.70;5.82;;;38.90;39.50;;;;;;4993552;28;20038;-78
2021/08/05 08:42:48;;;;;;;7.50;5.60;;;38.70;39.70;;;;;;4993422;28;20461;-78
2021/08/05 08:45:16;;;;;;;6.68;5.25;;;38.50;40.30;;;;;;4992753;28;20026;-78
2021/08/05 08:47:52;;;;;;;11.05;5.97;;;38.20;40.50;;;;;;4992839;28;20026;-78
2021/08/05 08:50:18;;;;;;;8.45;5.75;;;37.90;40.90;;;;;;4993653;28;20080;-78
2021/08/05 08:52:46;;;;;;;6.93;5.50;;;37.70;41.10;;;;;;4993065;28;20022;-79
2021/08/05 08:55:13;;;;;;;7.53;5.80;;;37.60;41.40;;;;;;4993026;28;20040;-80
2021/08/05 08:57:39;;;;;;;6.10;4.88;;;37.50;41.60;;;;;;4992647;28;20461;-80
2021/08/05 09:00:07;;;;;;;7.30;4.60;;;37.40;41.40;;;;;;4993002;28;20485;-79
2021/08/05 09:02:33;;;;;;;7.43;5.13;;;37.20;41.30;;;;;;4992784;28;20457;-79
2021/08/05 09:05:03;;;;;;;8.10;5.55;;;37.10;41.50;;;;;;4992566;28;20027;-79
2021/08/05 09:07:29;;;;;;;7.55;5.28;;;36.90;41.40;;;;;;4992838;28;20030;-79
2021/08/05 09:09:55;;;;;;;6.85;5.28;;;36.80;41.80;;;;;;4992596;28;20026;-79
2021/08/05 09:12:23;;;;;;;6.03;4.75;;;36.70;41.60;;;;;;4992699;28;20446;-81
2021/08/05 09:14:54;;;;;;;7.38;4.80;;;36.60;41.80;;;;;;4975069;28;20038;-80
2021/08/05 09:17:29;;;;;;;7.63;5.43;;;36.60;42.20;;;;;;4992408;28;20084;-79
2021/08/05 09:20:03;;;;;;;7.25;4.93;;;36.50;42.30;;;;;;4992410;28;20018;-80
2021/08/05 09:22:42;;;;;;;5.70;4.68;;;36.50;42.10;;;;;;4992708;28;20022;-80
2021/08/05 09:25:29;;;;;;;7.75;4.57;;;36.20;42.20;;;;;;4992181;28;20535;-80
2021/08/05 09:28:17;;;;;;;7.40;4.40;;;36.20;42.70;;;;;;4994214;28;20026;-80
2021/08/05 09:30:44;;;;;;;6.18;4.47;;;36.10;42.60;;;;;;4992350;28;20030;-80
2021/08/05 09:33:14;;;;;;;5.95;4.15;;;35.90;42.50;;;;;;4974559;28;20393;-80
2021/08/05 09:35:42;;;;;;;6.90;4.30;;;35.70;42.20;;;;;;4992124;28;20034;-79
2021/08/05 09:38:27;;;;;;;8.82;4.10;;;35.60;41.90;;;;;;4992198;28;20027;-79
2021/08/05 09:41:03;;;;;;;5.32;4.28;;;35.50;41.90;;;;;;4992476;28;20026;-78
2021/08/05 09:43:36;;;;;;;5.22;4.40;;;35.50;42.10;;;;;;4992776;28;20350;-77
2021/08/05 09:46:02;;;;;;;6.63;4.13;;;35.50;42.10;;;;;;4973941;28;20022;-78
2021/08/05 09:48:48;;;;;;;6.63;4.45;;;35.40;41.70;;;;;;4994608;28;20036;-78
2021/08/05 09:51:18;;;;;;;8.30;4.55;;;35.30;41.90;;;;;;4934781;28;20029;-78
2021/08/05 09:53:58;;;;;;;4.85;4.35;;;35.10;42.20;;;;;;4991567;28;20026;-80
2021/08/05 09:56:25;;;;;;;5.88;4.40;;;35.00;42.30;;;;;;4989436;28;20385;-79
2021/08/05 09:58:52;;;;;;;9.52;4.18;;;35.00;42.20;;;;;;4990832;28;20106;-78
2021/08/05 10:01:18;;;;;;;7.05;4.60;;;35.00;42.20;;;;;;4990180;28;20022;-76
2021/08/05 10:03:44;;;;;;;6.60;4.20;;;35.00;42.30;;;;;;4989950;28;20065;-77
2021/08/05 10:06:10;;;;;;;7.75;4.53;;;35.00;42.40;;;;;;4990339;28;20086;-80
2021/08/05 10:08:38;;;;;;;5.28;4.15;;;34.90;42.50;;;;;;4991084;28;20106;-77
2021/08/05 10:11:05;;;;;;;7.53;4.80;;;34.60;42.80;;;;;;4990699;28;20089;-76
2021/08/05 10:13:36;;;;;;;9.02;4.90;;;34.40;43.20;;;;;;4990718;28;20011;-77
2021/08/05 10:16:09;;;;;;;6.28;4.10;;;34.30;43.50;;;;;;4990274;28;20015;-77
2021/08/05 10:18:38;;;;;;;5.88;4.20;;;34.20;43.80;;;;;;4970905;28;20022;-76
2021/08/05 10:21:06;;;;;;;5.43;4.25;;;34.10;44.20;;;;;;4991343;28;20098;-77
2021/08/05 10:23:33;;;;;;;6.90;4.60;;;34.10;43.30;;;;;;4993235;28;20030;-77
2021/08/05 10:26:01;;;;;;;8.15;4.85;;;34.00;43.30;;;;;;4995096;28;20049;-77
2021/08/05 10:28:28;;;;;;;10.15;4.63;;;34.00;43.70;;;;;;4995399;28;20034;-77
2021/08/05 10:30:57;;;;;;;9.52;4.68;;;33.90;43.40;;;;;;4995285;28;20377;-76
2021/08/05 10:33:23;;;;;;;5.15;4.47;;;33.70;43.50;;;;;;4995137;28;20436;-76
2021/08/05 10:35:50;;;;;;;6.25;4.40;;;33.60;43.60;;;;;;4995541;28;20443;-77
2021/08/05 10:38:21;;;;;;;12.15;4.40;;;33.60;43.70;;;;;;5010650;28;20420;-75
2021/08/05 10:40:48;;;;;;;5.38;4.22;;;33.40;43.50;;;;;;4995808;28;20033;-77
2021/08/05 10:43:14;;;;;;;9.68;4.68;;;33.30;43.60;;;;;;4995592;28;20061;-77
2021/08/05 10:45:41;;;;;;;8.57;3.83;;;33.20;43.40;;;;;;4995252;28;20023;-77
2021/08/05 10:48:10;;;;;;;6.60;3.90;;;33.00;43.20;;;;;;4994989;28;20481;-77
2021/08/05 10:50:42;;;;;;;12.90;4.55;;;33.00;42.90;;;;;;4995375;28;20484;-76
2021/08/05 10:53:13;;;;;;;5.80;4.38;;;32.90;43.00;;;;;;4995133;28;20037;-77
2021/08/05 10:55:41;;;;;;;5.80;4.72;;;32.80;43.60;;;;;;4995315;28;20405;-77
2021/08/05 10:58:29;;;;;;;7.93;4.32;;;32.70;44.20;;;;;;4994925;28;20388;-77
2021/08/05 11:01:04;;;;;;;4.55;4.13;;;32.70;44.20;;;;;;4994945;28;20038;-78
2021/08/05 11:03:33;;;;;;;9.10;4.72;;;32.70;43.90;;;;;;4995105;28;20384;-78
2021/08/05 11:06:05;;;;;;;5.43;4.10;;;32.60;43.90;;;;;;4994936;28;20026;-77
2021/08/05 11:08:31;;;;;;;10.35;4.90;;;32.60;44.00;;;;;;4995343;28;20133;-78
2021/08/05 11:11:22;;;;;;;4.90;4.50;;;32.60;44.20;;;;;;4994681;28;20026;-81
2021/08/05 11:14:16;;;;;;;5.65;4.75;;;32.50;44.30;;;;;;4994944;28;20380;-78
2021/08/05 11:16:51;;;;;;;9.57;5.15;;;32.50;44.40;;;;;;4987381;28;20046;-76
2021/08/05 11:19:19;;;;;;;6.72;5.25;;;32.50;44.90;;;;;;4994848;28;20023;-77
2021/08/05 11:21:45;;;;;;;18.77;5.43;;;32.50;45.10;;;;;;4994416;28;20030;-78
2021/08/05 11:24:11;;;;;;;6.45;5.55;;;32.60;45.40;;;;;;4994704;28;20025;-78
2021/08/05 11:27:12;;;;;;;7.13;5.70;;;32.60;45.60;;;;;;4994643;28;20034;-77
2021/08/05 11:29:38;;;;;;;8.13;5.88;;;32.60;45.90;;;;;;4994248;28;20031;-79
2021/08/05 11:32:23;;;;;;;12.55;5.65;;;32.60;46.10;;;;;;4994610;28;20039;-81
2021/08/05 11:34:55;;;;;;;8.57;5.97;;;32.60;46.50;;;;;;4994032;28;20073;-79
2021/08/05 11:37:22;;;;;;;10.80;6.10;;;32.60;46.90;;;;;;4994856;28;20029;-78
2021/08/05 11:39:59;;;;;;;11.02;6.28;;;32.70;47.20;;;;;;4993889;28;20457;-79
2021/08/05 11:42:27;;;;;;;8.85;6.32;;;32.90;47.30;;;;;;4994362;28;20030;-77
2021/08/05 11:44:59;;;;;;;12.48;6.43;;;33.00;47.00;;;;;;4994416;28;20026;-78
2021/08/05 11:47:27;;;;;;;11.20;6.07;;;32.90;46.80;;;;;;4994303;28;20440;-78
2021/08/05 11:50:02;;;;;;;9.85;5.10;;;32.80;46.60;;;;;;4994169;28;20026;-77
2021/08/05 11:52:28;;;;;;;8.23;5.93;;;32.70;46.60;;;;;;4994238;28;20026;-79
2021/08/05 11:55:13;;;;;;;7.78;5.45;;;32.50;46.70;;;;;;4994008;28;20440;-77
2021/08/05 11:57:56;;;;;;;6.05;5.22;;;32.40;46.90;;;;;;4994105;28;20098;-78
2021/08/05 12:00:27;;;;;;;15.27;5.47;;;32.20;47.10;;;;;;4994069;28;20056;-78
2021/08/05 12:02:55;;;;;;;8.85;6.00;;;32.10;47.60;;;;;;4994208;28;20092;-79
2021/08/05 12:05:28;;;;;;;15.13;6.28;;;32.00;47.80;;;;;;4994274;28;20074;-82
2021/08/05 12:07:54;;;;;;;10.27;5.93;;;31.90;48.10;;;;;;4994412;28;20100;-79
2021/08/05 12:10:28;;;;;;;11.55;5.95;;;31.80;48.50;;;;;;4994153;28;20541;-79
2021/08/05 12:13:00;;;;;;;9.70;5.78;;;31.70;48.70;;;;;;4993569;28;20027;-79
2021/08/05 12:15:28;;;;;;;7.40;6.22;;;31.70;48.70;;;;;;4993629;28;20050;-80
2021/08/05 12:17:57;;;;;;;7.30;5.88;;;31.60;48.70;;;;;;4993328;28;20022;-79
2021/08/05 12:20:33;;;;;;;12.65;5.78;;;31.50;48.60;;;;;;4993650;28;20126;-78
2021/08/05 12:23:14;;;;;;;10.10;5.63;;;31.50;48.70;;;;;;4993843;28;20116;-79
2021/08/05 12:25:47;;;;;;;10.50;5.68;;;31.40;48.70;;;;;;4993581;28;20109;-81
2021/08/05 12:28:18;;;;;;;10.90;5.88;;;31.40;48.70;;;;;;4992840;28;20060;-81
2021/08/05 12:30:47;;;;;;;6.30;5.20;;;31.60;48.80;;;;;;4992309;28;20031;-82
2021/08/05 12:33:16;;;;;;;7.43;5.63;;;31.70;48.80;;;;;;4992298;28;20130;-78
2021/08/05 12:36:00;;;;;;;10.32;5.65;;;31.70;48.50;;;;;;4992202;28;20025;-80
2021/08/05 12:38:26;;;;;;;9.23;5.22;;;31.90;48.50;;;;;;4991334;28;20015;-81
2021/08/05 12:40:53;;;;;;;7.97;5.70;;;32.00;48.10;;;;;;4993274;28;20026;-82
2021/08/05 12:43:19;;;;;;;11.43;6.10;;;32.20;48.50;;;;;;4993683;28;20030;-80
2021/08/05 12:45:47;;;;;;;8.60;5.80;;;32.30;47.70;;;;;;4992478;28;20033;-81